Time,TemperatureF,DewpointF,PressureIn,WindDirection,WindDirectionDegrees,WindSpeedMPH,WindSpeedGustMPH,Humidity,HourlyPrecipIn,Conditions,Clouds,dailyrainin,SoftwareType,DateUTC
2017-02-27 00:00:00,45.5,43.3,30.04,SW,219,0.0,8.0,92,0.00,,,0.00,Wunderground v.1.15,2017-02-26 23:00:00,
2017-02-27 00:10:00,45.5,43.3,30.04,SW,219,0.0,8.0,92,0.00,,,0.00,Wunderground v.1.15,2017-02-26 23:10:00,
2017-02-27 00:20:00,45.4,43.2,30.04,SW,219,0.0,8.0,92,0.00,,,0.00,Wunderground v.1.15,2017-02-26 23:20:00,
2017-02-27 00:30:00,45.2,43.0,30.03,SW,223,0.0,8.0,92,0.00,,,0.00,Wunderground v.1.15,2017-02-26 23:30:00,
2017-02-27 00:40:00,45.2,43.0,30.03,SW,219,0.0,8.0,92,0.00,,,0.00,Wunderground v.1.15,2017-02-26 23:40:00,
2017-02-27 00:50:00,45.1,42.9,30.03,SW,219,0.0,8.0,92,0.00,,,0.00,Wunderground v.1.15,2017-02-26 23:50:00,
2017-02-27 01:00:00,45.2,43.0,30.03,SW,219,0.0,8.0,92,0.00,,,0.00,Wunderground v.1.15,2017-02-27 00:00:00,
2017-02-27 01:10:00,44.8,42.6,30.02,SW,219,0.0,8.0,92,0.00,,,0.00,Wunderground v.1.15,2017-02-27 00:10:00,
2017-02-27 01:20:00,44.6,42.4,30.02,SW,219,0.0,8.0,92,0.00,,,0.00,Wunderground v.1.15,2017-02-27 00:20:00,
2017-02-27 01:30:00,44.3,42.4,30.02,SW,217,0.0,8.0,93,0.00,,,0.00,Wunderground v.1.15,2017-02-27 00:30:00,
2017-02-27 01:40:00,44.6,42.7,30.02,SSE,149,0.0,8.0,93,0.00,,,0.00,Wunderground v.1.15,2017-02-27 00:40:00,
2017-02-27 01:50:00,44.8,42.9,30.01,South,173,0.0,8.0,93,0.00,,,0.00,Wunderground v.1.15,2017-02-27 00:50:00,
2017-02-27 02:00:00,44.3,42.1,30.00,SW,230,0.0,8.0,92,0.00,,,0.00,Wunderground v.1.15,2017-02-27 01:00:00,
2017-02-27 02:10:00,44.2,42.3,30.00,SW,229,0.0,8.0,93,0.00,,,0.00,Wunderground v.1.15,2017-02-27 01:10:00,
2017-02-27 02:20:00,44.0,42.1,29.99,SSW,204,0.0,8.0,93,0.00,,,0.00,Wunderground v.1.15,2017-02-27 01:20:00,
2017-02-27 02:30:00,43.8,41.9,29.98,SSW,206,0.0,8.0,93,0.00,,,0.00,Wunderground v.1.15,2017-02-27 01:30:00,
2017-02-27 02:40:00,43.6,41.7,29.98,SW,219,0.0,8.0,93,0.00,,,0.00,Wunderground v.1.15,2017-02-27 01:40:00,
2017-02-27 02:50:00,43.7,42.1,29.97,SW,229,0.0,8.0,94,0.00,,,0.00,Wunderground v.1.15,2017-02-27 01:50:00,
2017-02-27 03:00:00,43.6,41.7,29.96,SSE,166,0.0,8.0,93,0.00,,,0.00,Wunderground v.1.15,2017-02-27 02:00:00,
2017-02-27 03:10:00,43.8,42.2,29.95,SSW,196,1.0,8.0,94,0.00,,,0.00,Wunderground v.1.15,2017-02-27 02:10:00,
2017-02-27 03:20:00,43.9,42.0,29.94,SW,229,2.0,2.0,93,0.00,,,0.00,Wunderground v.1.15,2017-02-27 02:20:00,
2017-02-27 03:30:00,43.2,41.3,29.94,SSW,204,0.0,8.0,93,0.00,,,0.00,Wunderground v.1.15,2017-02-27 02:30:00,
2017-02-27 03:40:00,43.1,41.2,29.93,SW,218,0.0,8.0,93,0.00,,,0.00,Wunderground v.1.15,2017-02-27 02:40:00,
2017-02-27 03:49:00,43.2,41.6,29.92,SW,222,1.0,8.0,94,0.00,,,0.00,Wunderground v.1.15,2017-02-27 02:49:00,
2017-02-27 04:00:00,43.3,41.7,29.92,SSW,213,2.0,2.0,94,0.00,,,0.00,Wunderground v.1.15,2017-02-27 03:00:00,
2017-02-27 04:10:00,43.4,41.8,29.92,SSE,162,1.0,8.0,94,0.00,,,0.00,Wunderground v.1.15,2017-02-27 03:10:00,
2017-02-27 04:20:00,44.0,42.4,29.91,SE,130,1.0,1.0,94,0.00,,,0.00,Wunderground v.1.15,2017-02-27 03:20:00,
2017-02-27 04:30:00,43.2,41.3,29.91,WSW,237,0.0,8.0,93,0.00,,,0.00,Wunderground v.1.15,2017-02-27 03:30:00,
2017-02-27 04:39:00,42.9,41.3,29.90,SW,214,0.0,8.0,94,0.00,,,0.00,Wunderground v.1.15,2017-02-27 03:39:00,
2017-02-27 04:49:00,42.8,41.2,29.89,SSW,211,0.0,8.0,94,0.00,,,0.00,Wunderground v.1.15,2017-02-27 03:49:00,
2017-02-27 04:59:00,42.6,41.0,29.89,SSW,206,1.0,8.0,94,0.00,,,0.00,Wunderground v.1.15,2017-02-27 03:59:00,
2017-02-27 05:09:00,42.4,40.8,29.88,SSW,208,1.0,1.0,94,0.00,,,0.00,Wunderground v.1.15,2017-02-27 04:09:00,
2017-02-27 05:19:00,42.4,40.8,29.88,SW,218,0.0,8.0,94,0.00,,,0.00,Wunderground v.1.15,2017-02-27 04:19:00,
2017-02-27 05:29:00,42.6,41.0,29.88,South,180,1.0,1.0,94,0.00,,,0.00,Wunderground v.1.15,2017-02-27 04:29:00,
2017-02-27 05:40:00,42.8,41.2,29.88,WSW,239,0.0,8.0,94,0.00,,,0.00,Wunderground v.1.15,2017-02-27 04:40:00,
2017-02-27 05:50:00,42.4,40.8,29.87,SSE,158,1.0,1.0,94,0.00,,,0.00,Wunderground v.1.15,2017-02-27 04:50:00,